createdAt,value
2018-06-03T00:00:30.359Z,70.40
2018-06-03T00:02:58.548Z,70.70
2018-06-03T00:05:26.862Z,71.00
2018-06-03T00:07:55.061Z,71.90
2018-06-03T00:10:23.255Z,72.30
2018-06-03T00:12:51.552Z,72.70
2018-06-03T00:15:19.753Z,73.80
2018-06-03T00:17:47.945Z,74.40
2018-06-03T00:21:28.841Z,74.40
2018-06-03T00:23:57.056Z,73.70
2018-06-03T00:26:25.536Z,73.10
2018-06-03T00:28:53.750Z,73.10
2018-06-03T00:31:21.986Z,73.40
2018-06-03T00:33:50.915Z,72.40
2018-06-03T00:36:30.451Z,71.80
2018-06-03T00:38:58.895Z,71.20
2018-06-03T00:41:27.258Z,72.00
2018-06-03T00:43:55.894Z,72.40
2018-06-03T00:46:24.175Z,71.00
2018-06-03T00:48:52.354Z,71.20
2018-06-03T00:58:50.160Z,70.80
2018-06-03T01:01:18.371Z,71.40
2018-06-03T01:03:46.549Z,71.90
2018-06-03T01:06:14.776Z,71.70
2018-06-03T01:08:42.987Z,74.10
2018-06-03T01:11:11.170Z,72.70
2018-06-03T01:13:39.370Z,72.30
2018-06-03T01:16:07.690Z,72.00
2018-06-03T01:18:35.904Z,71.30
2018-06-03T01:21:04.100Z,71.00
2018-06-03T01:23:32.573Z,70.50
2018-06-03T01:26:00.800Z,70.40
2018-06-03T01:30:56.963Z,70.90
2018-06-03T01:33:26.027Z,72.20
2018-06-03T01:38:22.165Z,71.10
2018-06-03T01:43:18.478Z,71.20
2018-06-03T01:45:46.680Z,69.80
2018-06-03T01:48:15.262Z,69.70
2018-06-03T01:50:43.496Z,69.70
2018-06-03T01:53:11.966Z,69.70
2018-06-03T01:55:40.183Z,69.60
2018-06-03T01:58:08.400Z,70.30
2018-06-03T02:00:36.580Z,70.60
2018-06-03T02:03:04.929Z,70.30
2018-06-03T02:08:01.086Z,69.80
2018-06-03T02:10:29.262Z,69.60
2018-06-03T02:12:57.778Z,70.10
2018-06-03T02:15:25.971Z,70.80
2018-06-03T02:17:54.162Z,70.10
2018-06-03T02:20:22.360Z,70.30
2018-06-03T02:22:50.925Z,70.50
2018-06-03T02:25:19.455Z,70.30
2018-06-03T02:27:47.655Z,70.70
2018-06-03T02:30:15.846Z,71.80
2018-06-03T02:32:44.094Z,72.60
2018-06-03T02:35:12.280Z,72.70
2018-06-03T02:37:40.464Z,73.80
2018-06-03T02:40:08.851Z,72.50
2018-06-03T02:42:37.039Z,71.60
2018-06-03T02:45:05.499Z,71.70
2018-06-03T02:47:33.674Z,71.60
2018-06-03T02:50:01.922Z,71.30
2018-06-03T02:52:30.119Z,70.60
2018-06-03T02:54:58.293Z,69.00
2018-06-03T02:57:26.780Z,69.70
2018-06-03T02:59:54.951Z,68.10
2018-06-03T03:02:23.649Z,68.80
2018-06-03T03:07:19.853Z,69.00
2018-06-03T03:09:48.049Z,69.00
2018-06-03T03:12:16.424Z,69.00
2018-06-03T03:14:44.621Z,69.20
2018-06-03T03:19:41.042Z,70.30
2018-06-03T03:22:09.252Z,70.70
2018-06-03T03:24:37.449Z,71.00
2018-06-03T03:27:05.688Z,71.10
2018-06-03T03:29:33.901Z,71.50
2018-06-03T03:32:02.113Z,72.10
2018-06-03T03:34:30.302Z,72.50
2018-06-03T03:36:58.975Z,72.90
2018-06-03T03:39:27.195Z,72.90
2018-06-03T03:41:55.359Z,72.50
2018-06-03T03:44:23.547Z,72.20
2018-06-03T03:46:51.989Z,72.10
2018-06-03T03:49:20.215Z,72.00
2018-06-03T03:51:48.652Z,72.20
2018-06-03T03:56:44.783Z,71.50
2018-06-03T03:59:12.971Z,71.70
2018-06-03T04:01:41.164Z,72.00
2018-06-03T04:04:09.389Z,71.40
2018-06-03T04:06:37.939Z,70.90
2018-06-03T04:09:06.691Z,71.30
2018-06-03T04:14:02.833Z,70.90
2018-06-03T04:16:31.318Z,70.80
2018-06-03T04:18:59.600Z,70.90
2018-06-03T04:21:27.782Z,71.30
2018-06-03T04:23:56.106Z,71.60
2018-06-03T04:26:24.299Z,71.80
2018-06-03T04:28:52.486Z,72.30
2018-06-03T04:33:48.858Z,73.10
2018-06-03T04:36:17.326Z,73.30
2018-06-03T04:38:45.547Z,73.40
2018-06-03T04:41:13.889Z,73.80
2018-06-03T04:43:42.080Z,73.70
2018-06-03T04:46:10.299Z,74.10
2018-06-03T04:48:38.768Z,74.90
2018-06-03T04:51:07.275Z,75.30
2018-06-03T04:56:03.405Z,80.60
2018-06-03T04:58:32.314Z,81.30
2018-06-03T05:01:00.799Z,80.50
2018-06-03T05:03:29.221Z,81.10
2018-06-03T05:05:57.753Z,81.50
2018-06-03T05:08:26.294Z,79.60
2018-06-03T05:10:54.756Z,80.40
2018-06-03T05:13:23.565Z,79.60
2018-06-03T05:15:52.014Z,78.50
2018-06-03T05:18:20.285Z,77.20
2018-06-03T05:20:48.894Z,78.20
2018-06-03T05:23:17.071Z,76.60
2018-06-03T05:25:45.280Z,76.30
2018-06-03T05:28:14.236Z,74.90
2018-06-03T05:30:42.613Z,72.90
2018-06-03T05:33:10.787Z,71.50
2018-06-03T05:35:38.979Z,72.00
2018-06-03T05:38:07.459Z,71.20
2018-06-03T05:40:35.686Z,72.00
2018-06-03T05:43:03.872Z,71.50
2018-06-03T05:45:32.302Z,70.10
2018-06-03T05:48:00.721Z,69.40
2018-06-03T05:50:28.927Z,68.70
2018-06-03T05:52:57.137Z,68.60
2018-06-03T05:55:25.336Z,66.50
2018-06-03T05:57:53.532Z,66.10
2018-06-03T06:00:21.733Z,67.00
2018-06-03T06:02:50.033Z,66.30
2018-06-03T06:05:18.248Z,65.50
2018-06-03T06:07:46.442Z,64.50
2018-06-03T06:10:15.573Z,66.70
2018-06-03T06:15:11.708Z,62.60
2018-06-03T06:17:40.004Z,60.90
2018-06-03T06:20:08.255Z,60.30
2018-06-03T06:22:36.407Z,60.60
2018-06-03T06:25:04.726Z,61.80
2018-06-03T06:30:00.894Z,60.40
2018-06-03T06:32:29.354Z,61.10
2018-06-03T06:37:25.551Z,58.20
2018-06-03T06:39:54.130Z,59.00
2018-06-03T06:42:22.576Z,59.10
2018-06-03T06:44:51.037Z,58.50
2018-06-03T06:47:19.390Z,59.00
2018-06-03T06:49:47.579Z,57.70
2018-06-03T06:52:15.787Z,56.70
2018-06-03T06:54:44.048Z,56.60
2018-06-03T06:57:12.579Z,56.00
2018-06-03T06:59:40.778Z,55.80
2018-06-03T07:02:08.967Z,56.20
2018-06-03T07:07:05.742Z,55.70
2018-06-03T07:09:33.957Z,54.10
2018-06-03T07:12:02.166Z,54.80
2018-06-03T07:14:30.401Z,56.30
2018-06-03T07:19:27.207Z,54.90
2018-06-03T07:21:56.065Z,55.10
2018-06-03T07:24:24.275Z,54.50
2018-06-03T07:26:52.508Z,54.70
2018-06-03T07:29:20.708Z,54.30
2018-06-03T07:31:48.899Z,54.10
2018-06-03T07:34:17.575Z,52.40
2018-06-03T07:36:45.788Z,52.80
2018-06-03T07:39:13.967Z,53.70
2018-06-03T07:41:42.415Z,53.30
2018-06-03T07:44:10.642Z,53.90
2018-06-03T07:46:38.830Z,53.40
2018-06-03T07:49:07.032Z,53.60
2018-06-03T07:51:35.287Z,53.30
2018-06-03T07:54:03.488Z,52.50
2018-06-03T07:58:59.651Z,51.10
2018-06-03T08:01:27.851Z,53.10
2018-06-03T08:03:56.029Z,53.00
2018-06-03T08:06:24.239Z,52.70
2018-06-03T08:08:52.513Z,53.70
2018-06-03T08:11:21.144Z,52.50
2018-06-03T08:13:49.388Z,51.70
2018-06-03T08:16:17.548Z,51.50
2018-06-03T08:18:45.995Z,51.00
2018-06-03T08:21:14.186Z,49.80
2018-06-03T08:23:42.382Z,50.50
2018-06-03T08:31:07.177Z,49.50
2018-06-03T08:33:35.387Z,49.50
2018-06-03T08:36:03.584Z,48.50
2018-06-03T08:38:31.879Z,46.80
2018-06-03T08:41:00.103Z,49.80
2018-06-03T08:43:28.406Z,49.00
2018-06-03T08:45:56.586Z,49.40
2018-06-03T08:48:24.852Z,50.20
2018-06-03T08:50:53.184Z,49.40
2018-06-03T08:53:21.403Z,48.90
2018-06-03T08:55:49.610Z,48.70
2018-06-03T08:58:18.150Z,47.50
2018-06-03T09:00:46.335Z,50.10
2018-06-03T09:03:14.528Z,50.40
2018-06-03T09:05:43.171Z,49.20
2018-06-03T09:10:39.293Z,46.90
2018-06-03T09:13:07.587Z,47.80
2018-06-03T09:15:35.773Z,46.50
2018-06-03T09:18:03.967Z,46.40
2018-06-03T09:20:32.208Z,46.00
2018-06-03T09:25:28.385Z,46.50
2018-06-03T09:27:56.689Z,46.20
2018-06-03T09:30:24.946Z,47.40
2018-06-03T09:32:53.147Z,47.30
2018-06-03T09:35:21.357Z,46.60
2018-06-03T09:37:49.563Z,45.70
2018-06-03T09:40:18.162Z,48.50
2018-06-03T09:42:46.378Z,43.80
2018-06-03T09:45:14.575Z,43.80
2018-06-03T09:47:42.859Z,43.90
2018-06-03T09:50:11.043Z,46.20
2018-06-03T09:52:39.264Z,43.70
2018-06-03T09:55:07.556Z,43.90
2018-06-03T09:57:35.844Z,45.10
2018-06-03T10:00:04.017Z,44.40
2018-06-03T10:02:32.260Z,43.00
2018-06-03T10:05:01.007Z,43.90
2018-06-03T10:07:29.194Z,41.80
2018-06-03T10:09:57.384Z,43.60
2018-06-03T10:12:25.562Z,42.00
2018-06-03T10:14:53.780Z,43.00
2018-06-03T10:17:21.988Z,42.50
2018-06-03T10:19:50.179Z,40.70
2018-06-03T10:22:18.385Z,42.90
2018-06-03T10:24:46.598Z,42.20
2018-06-03T10:27:14.849Z,42.90
2018-06-03T10:29:43.043Z,42.10
2018-06-03T10:32:11.251Z,41.80
2018-06-03T10:34:39.717Z,40.50
2018-06-03T10:37:07.900Z,41.80
2018-06-03T10:39:36.112Z,40.50
2018-06-03T10:42:04.304Z,40.20
2018-06-03T10:44:32.486Z,41.30
2018-06-03T10:47:00.705Z,40.20
2018-06-03T10:49:28.894Z,40.30
2018-06-03T10:51:57.088Z,40.50
2018-06-03T10:54:25.293Z,40.80
2018-06-03T10:56:53.468Z,39.70
2018-06-03T10:59:21.674Z,40.20
2018-06-03T11:01:49.872Z,40.00
2018-06-03T11:04:18.085Z,41.20
2018-06-03T11:06:46.267Z,40.30
2018-06-03T11:09:14.463Z,40.00
2018-06-03T11:11:42.646Z,40.70
2018-06-03T11:14:10.828Z,39.40
2018-06-03T11:16:39.077Z,39.00
2018-06-03T11:19:07.376Z,46.70
2018-06-03T11:21:35.636Z,39.20
2018-06-03T11:24:03.831Z,39.80
2018-06-03T11:26:32.056Z,39.40
2018-06-03T11:29:00.233Z,39.40
2018-06-03T11:32:13.941Z,39.90
2018-06-03T11:37:34.847Z,38.10
2018-06-03T11:40:23.506Z,39.20
2018-06-03T11:48:49.276Z,39.00
2018-06-03T11:51:57.575Z,36.50
2018-06-03T11:57:16.321Z,36.30
2018-06-03T12:03:21.434Z,37.50
2018-06-03T12:08:45.989Z,38.10
2018-06-03T12:11:38.436Z,35.80
2018-06-03T12:14:44.964Z,36.40
2018-06-03T21:43:01.729Z,61.70
2018-06-03T21:45:31.039Z,56.00
2018-06-03T21:48:02.012Z,55.80
2018-06-03T21:50:32.205Z,55.80
2018-06-03T21:53:02.228Z,55.80
2018-06-03T21:55:34.304Z,56.20
2018-06-03T22:00:34.010Z,56.20
2018-06-03T22:03:02.711Z,56.40
2018-06-03T22:05:31.258Z,57.20
2018-06-03T22:07:59.865Z,57.30
2018-06-03T22:10:28.338Z,58.10
2018-06-03T22:12:57.424Z,58.00
2018-06-03T22:15:26.533Z,58.50
2018-06-03T22:17:55.346Z,57.80
2018-06-03T22:23:16.198Z,57.90
2018-06-03T22:31:07.357Z,57.40
2018-06-03T22:36:39.684Z,57.70
2018-06-03T22:39:27.137Z,58.50
2018-06-03T22:42:10.333Z,58.20
2018-06-03T22:50:38.078Z,59.40
2018-06-03T22:53:12.583Z,58.90
2018-06-03T22:55:54.056Z,58.80
2018-06-03T23:01:17.630Z,58.60
2018-06-03T23:12:36.339Z,60.10
2018-06-03T23:15:15.708Z,60.60
2018-06-03T23:23:08.560Z,60.00
2018-06-03T23:28:20.196Z,61.90
2018-06-03T23:31:07.505Z,60.00
2018-06-03T23:42:00.740Z,61.90
2018-06-03T23:55:42.043Z,62.90
2018-06-03T23:58:24.147Z,63.50
